Time;durP1;ratioP1;P1;durP2;ratioP2;P2;SDS_P1;SDS_P2;PMS_P1;PMS_P2;Temp;Humidity;BMP_temperature;BMP_pressure;BME280_temperature;BME280_humidity;BME280_pressure;Samples;Min_cycle;Max_cycle;Signal;HPM_P1;HPM_P2
2023/10/18 00:02:50;;;;;;;17.58;9.55;;;4.70;99.90;;;;;;5108124;28;20112;-60
2023/10/18 00:05:18;;;;;;;;;;;4.60;99.90;;;;;;5112905;28;20551;-60
2023/10/18 00:07:45;;;;;;;17.55;8.75;;;4.70;99.90;;;;;;5111959;28;20364;-60
2023/10/18 00:10:12;;;;;;;17.65;10.18;;;4.70;99.90;;;;;;5112506;28;20088;-60
2023/10/18 00:12:39;;;;;;;22.05;10.80;;;4.70;99.90;;;;;;5110705;28;20442;-59
2023/10/18 00:15:07;;;;;;;;;;;4.80;99.90;;;;;;5112932;28;20528;-60
2023/10/18 00:17:34;;;;;;;19.95;9.23;;;4.90;99.90;;;;;;5110139;28;19919;-60
2023/10/18 00:20:00;;;;;;;17.08;9.35;;;4.90;99.90;;;;;;5112032;27;20608;-60
2023/10/18 00:22:27;;;;;;;17.77;9.00;;;4.90;99.90;;;;;;5094569;28;20043;-59
2023/10/18 00:24:55;;;;;;;18.23;9.25;;;4.90;99.90;;;;;;5104781;28;20040;-60
2023/10/18 00:27:24;;;;;;;15.43;8.52;;;4.90;99.90;;;;;;5106874;28;20040;-59
2023/10/18 00:29:54;;;;;;;14.35;8.85;;;4.90;99.90;;;;;;5103187;28;20113;-60
2023/10/18 00:32:21;;;;;;;17.67;8.80;;;4.80;99.90;;;;;;5109894;28;20597;-60
2023/10/18 00:34:49;;;;;;;18.15;9.98;;;4.90;99.90;;;;;;5109258;28;20134;-60
2023/10/18 00:37:16;;;;;;;16.25;9.00;;;4.90;99.90;;;;;;5112201;28;20039;-60
2023/10/18 00:39:44;;;;;;;17.15;8.43;;;4.90;99.90;;;;;;5110829;28;20145;-61
2023/10/18 00:42:23;;;;;;;17.27;8.55;;;4.90;99.90;;;;;;5103400;28;20055;-60
2023/10/18 00:44:51;;;;;;;13.70;8.07;;;4.80;99.90;;;;;;5110688;28;20044;-59
2023/10/18 00:47:18;;;;;;;14.25;7.40;;;4.80;99.90;;;;;;5110129;28;20149;-59
2023/10/18 00:49:46;;;;;;;12.45;5.75;;;4.70;99.90;;;;;;5110826;28;20035;-59
2023/10/18 00:52:15;;;;;;;9.45;5.53;;;4.60;99.90;;;;;;5109972;28;20047;-60
2023/10/18 00:54:44;;;;;;;9.50;4.95;;;4.60;99.90;;;;;;5110563;28;20051;-60
2023/10/18 00:57:12;;;;;;;8.40;5.13;;;4.60;99.90;;;;;;5110149;28;20048;-60
2023/10/18 00:59:42;;;;;;;11.80;4.75;;;4.60;99.90;;;;;;5103525;28;20058;-60
2023/10/18 01:02:14;;;;;;;8.00;5.07;;;4.50;99.90;;;;;;5111449;28;20048;-60
2023/10/18 01:04:42;;;;;;;7.93;4.55;;;4.50;99.90;;;;;;5112957;27;20032;-59
2023/10/18 01:07:12;;;;;;;7.30;4.40;;;4.50;99.90;;;;;;5109832;28;20055;-60
2023/10/18 01:09:50;;;;;;;8.60;4.50;;;4.50;99.90;;;;;;5108256;28;20032;-59
2023/10/18 01:12:18;;;;;;;8.68;3.95;;;4.50;99.90;;;;;;5105054;28;20047;-60
2023/10/18 01:14:45;;;;;;;6.68;3.72;;;4.50;99.90;;;;;;5107702;28;20048;-60
2023/10/18 01:17:15;;;;;;;6.65;3.65;;;4.40;99.90;;;;;;5112556;28;20039;-60
2023/10/18 01:19:43;;;;;;;6.57;4.05;;;4.50;99.90;;;;;;5114392;28;20051;-60
2023/10/18 01:22:10;;;;;;;10.05;4.28;;;4.40;99.90;;;;;;5115152;28;20075;-59
2023/10/18 01:24:40;;;;;;;15.85;6.53;;;4.30;99.90;;;;;;5114359;28;20027;-60
2023/10/18 01:27:08;;;;;;;12.57;6.30;;;4.30;99.90;;;;;;5104986;28;20377;-60
2023/10/18 01:29:34;;;;;;;;;;;4.30;99.90;;;;;;5114650;28;20427;-60
2023/10/18 01:32:02;;;;;;;12.23;5.82;;;4.30;99.90;;;;;;5106025;28;19919;-60
2023/10/18 01:34:31;;;;;;;14.88;7.57;;;4.30;99.90;;;;;;5113854;28;20135;-60
2023/10/18 01:36:59;;;;;;;13.38;7.47;;;4.30;99.90;;;;;;5104999;28;20047;-60
2023/10/18 01:39:31;;;;;;;11.95;7.22;;;4.30;99.90;;;;;;5109936;28;20079;-59
2023/10/18 01:41:59;;;;;;;18.90;8.80;;;4.30;99.90;;;;;;5102164;28;20505;-59
2023/10/18 01:44:35;;;;;;;18.23;8.23;;;4.30;99.90;;;;;;5113429;28;20040;-58
2023/10/18 01:47:09;;;;;;;16.77;8.00;;;4.30;99.90;;;;;;5113356;28;20043;-60
2023/10/18 01:49:41;;;;;;;14.60;7.90;;;4.30;99.90;;;;;;5104261;28;20063;-60
2023/10/18 01:52:08;;;;;;;11.32;7.20;;;4.30;99.90;;;;;;5113667;28;20047;-60
2023/10/18 01:54:35;;;;;;;15.95;8.25;;;4.30;99.90;;;;;;5103913;28;20051;-60
2023/10/18 01:57:02;;;;;;;13.15;7.25;;;4.30;99.90;;;;;;5115031;28;20040;-59
2023/10/18 01:59:29;;;;;;;16.48;7.85;;;4.20;99.90;;;;;;5113519;28;20044;-58
2023/10/18 02:01:59;;;;;;;;;;;4.20;99.90;;;;;;5104777;28;20051;-59
2023/10/18 02:04:27;;;;;;;13.40;7.28;;;4.20;99.90;;;;;;5103268;28;20264;-61
2023/10/18 02:07:17;;;;;;;10.90;6.20;;;4.20;99.90;;;;;;5113441;28;20054;-60
2023/10/18 02:09:57;;;;;;;11.02;6.50;;;4.10;99.90;;;;;;5114988;28;20096;-60
2023/10/18 02:12:27;;;;;;;9.95;6.15;;;4.00;99.90;;;;;;5094538;28;20048;-60
2023/10/18 02:14:57;;;;;;;10.48;6.38;;;4.00;99.90;;;;;;5113458;28;20043;-59
2023/10/18 02:17:24;;;;;;;10.05;5.38;;;4.00;99.90;;;;;;5114279;28;20409;-59
2023/10/18 02:19:52;;;;;;;11.70;6.30;;;4.00;99.90;;;;;;5114801;28;20054;-59
2023/10/18 02:22:18;;;;;;;;;;;4.10;99.90;;;;;;5112029;28;20557;-59
2023/10/18 02:24:49;;;;;;;13.73;7.35;;;4.20;99.90;;;;;;5114405;28;19919;-59
2023/10/18 02:27:16;;;;;;;14.40;7.30;;;4.30;99.90;;;;;;5104186;28;20040;-59
2023/10/18 02:29:44;;;;;;;;;;;4.40;99.90;;;;;;5111899;28;20130;-59
2023/10/18 02:32:23;;;;;;;12.00;7.13;;;4.50;99.90;;;;;;5114339;28;19920;-60
2023/10/18 02:34:51;;;;;;;;;;;4.50;99.90;;;;;;5108638;28;20035;-60
2023/10/18 02:37:19;;;;;;;10.15;6.13;;;4.50;99.90;;;;;;5098128;28;19920;-60
2023/10/18 02:39:46;;;;;;;13.05;7.68;;;4.50;99.90;;;;;;5112053;28;20094;-60
2023/10/18 02:42:31;;;;;;;12.45;6.57;;;4.40;99.90;;;;;;5112970;28;20434;-60
2023/10/18 02:44:59;;;;;;;10.85;6.22;;;4.40;99.90;;;;;;5112629;28;20120;-60
2023/10/18 02:47:26;;;;;;;11.20;7.10;;;4.40;99.90;;;;;;5104456;28;20392;-60
2023/10/18 02:49:53;;;;;;;12.15;6.63;;;4.30;99.90;;;;;;5112540;28;20067;-59
2023/10/18 02:52:20;;;;;;;10.02;5.93;;;4.30;99.90;;;;;;5103821;28;20043;-60
2023/10/18 02:54:48;;;;;;;11.20;5.97;;;4.30;99.90;;;;;;5106056;28;20089;-60
2023/10/18 02:57:15;;;;;;;10.60;6.22;;;4.30;99.90;;;;;;5108831;28;20123;-60
2023/10/18 02:59:43;;;;;;;8.05;4.43;;;4.30;99.90;;;;;;5111854;28;20539;-59
2023/10/18 03:02:14;;;;;;;10.82;5.60;;;4.30;99.90;;;;;;5111668;28;20050;-60
2023/10/18 03:04:44;;;;;;;10.13;5.40;;;4.30;99.90;;;;;;5107307;28;20072;-60
2023/10/18 03:07:13;;;;;;;15.20;6.93;;;4.20;99.90;;;;;;5111853;28;20046;-60
2023/10/18 03:09:40;;;;;;;13.07;6.50;;;4.10;99.90;;;;;;5106474;28;20489;-60
2023/10/18 03:12:13;;;;;;;11.40;6.90;;;4.10;99.90;;;;;;5099794;28;20126;-60
2023/10/18 03:14:48;;;;;;;14.52;6.78;;;4.10;99.90;;;;;;5111792;28;20054;-60
2023/10/18 03:17:19;;;;;;;11.77;6.45;;;4.10;99.90;;;;;;5111175;28;20085;-60
2023/10/18 03:19:50;;;;;;;12.05;5.95;;;4.20;99.90;;;;;;5103175;28;20100;-59
2023/10/18 03:22:21;;;;;;;11.48;6.38;;;4.20;99.90;;;;;;5110317;28;20519;-59
2023/10/18 03:24:48;;;;;;;10.00;6.13;;;4.10;99.90;;;;;;5105229;28;20040;-60
2023/10/18 03:27:15;;;;;;;;;;;4.10;99.90;;;;;;5104927;28;20063;-60
2023/10/18 03:29:43;;;;;;;8.98;5.38;;;4.20;99.90;;;;;;5104433;28;19969;-59
2023/10/18 03:32:19;;;;;;;12.48;6.32;;;4.20;99.90;;;;;;5103130;28;20062;-60
2023/10/18 03:34:46;;;;;;;8.40;5.38;;;4.20;99.90;;;;;;5108004;28;20064;-60
2023/10/18 03:37:26;;;;;;;10.80;5.72;;;4.30;99.90;;;;;;5093276;28;20613;-60
2023/10/18 03:39:53;;;;;;;13.70;6.88;;;4.30;99.90;;;;;;5103903;28;20074;-60
2023/10/18 03:42:30;;;;;;;11.80;6.28;;;4.20;99.90;;;;;;5111094;28;20563;-59
2023/10/18 03:45:11;;;;;;;10.93;6.40;;;4.20;99.90;;;;;;5108454;28;20457;-59
2023/10/18 03:47:38;;;;;;;12.77;6.55;;;4.20;99.90;;;;;;5109785;28;20032;-58
2023/10/18 03:50:13;;;;;;;12.50;6.25;;;4.20;99.90;;;;;;5107548;28;20036;-59
2023/10/18 03:52:40;;;;;;;8.80;5.22;;;4.20;99.90;;;;;;5109290;28;20040;-61
2023/10/18 03:55:18;;;;;;;10.18;5.45;;;4.20;99.90;;;;;;5109797;28;20054;-59
2023/10/18 03:57:45;;;;;;;9.05;4.88;;;4.10;99.90;;;;;;5103127;28;20047;-59
2023/10/18 04:02:56;;;;;;;8.82;4.28;;;4.00;99.90;;;;;;5112202;28;19926;-60
2023/10/18 04:05:45;;;;;;;7.90;4.05;;;4.00;99.90;;;;;;5103211;28;20100;-59
2023/10/18 04:08:17;;;;;;;6.47;3.95;;;4.00;99.90;;;;;;5105037;28;20036;-58
2023/10/18 04:10:46;;;;;;;5.68;3.80;;;4.00;99.90;;;;;;5102983;28;20682;-59
2023/10/18 04:13:14;;;;;;;9.63;5.00;;;4.00;99.90;;;;;;5111925;28;20508;-59
2023/10/18 04:15:45;;;;;;;8.40;4.82;;;3.90;99.90;;;;;;5103194;27;20044;-59
2023/10/18 04:18:13;;;;;;;7.63;4.38;;;4.00;99.90;;;;;;5112496;28;20039;-59
2023/10/18 04:20:47;;;;;;;9.73;5.95;;;4.00;99.90;;;;;;5111309;27;20135;-60
2023/10/18 04:23:15;;;;;;;10.82;6.07;;;3.90;99.90;;;;;;5112268;28;20051;-59
2023/10/18 04:25:42;;;;;;;;;;;3.90;99.90;;;;;;5099743;28;20040;-58
2023/10/18 04:28:12;;;;;;;13.30;7.35;;;3.90;99.90;;;;;;5111403;28;19961;-59
2023/10/18 04:30:38;;;;;;;8.82;5.53;;;4.00;99.90;;;;;;5107688;28;20047;-60
2023/10/18 04:35:45;;;;;;;10.40;5.00;;;4.00;99.90;;;;;;5108986;28;20077;-59
2023/10/18 04:38:39;;;;;;;9.77;5.90;;;4.00;99.90;;;;;;5110815;28;20039;-60
2023/10/18 04:41:08;;;;;;;10.05;4.85;;;4.00;99.90;;;;;;5104769;28;20039;-60
2023/10/18 04:43:36;;;;;;;9.32;5.40;;;4.10;99.90;;;;;;5109614;28;20040;-60
2023/10/18 04:49:00;;;;;;;11.50;5.20;;;4.00;99.90;;;;;;5110533;28;20067;-60
2023/10/18 04:51:43;;;;;;;12.50;5.82;;;4.00;99.90;;;;;;5104264;28;20536;-59
2023/10/18 04:54:15;;;;;;;13.95;5.95;;;4.00;99.90;;;;;;5110052;28;20036;-60
2023/10/18 04:56:46;;;;;;;11.40;6.43;;;4.00;99.90;;;;;;5104010;28;20397;-60
2023/10/18 05:04:34;;;;;;;11.70;5.97;;;4.10;99.90;;;;;;5100399;28;20039;-58
2023/10/18 05:07:14;;;;;;;9.57;5.70;;;4.10;99.90;;;;;;5104060;28;20394;-60
2023/10/18 05:09:43;;;;;;;10.75;6.55;;;4.10;99.90;;;;;;5109082;28;20096;-60
2023/10/18 05:17:48;;;;;;;11.43;6.07;;;4.00;99.90;;;;;;5111508;28;20050;-60
2023/10/18 05:20:21;;;;;;;11.73;5.53;;;4.10;99.90;;;;;;5091851;28;20477;-59
2023/10/18 05:22:52;;;;;;;12.55;5.72;;;4.10;99.90;;;;;;5110548;28;20044;-60
2023/10/18 05:28:09;;;;;;;14.25;7.50;;;4.10;99.90;;;;;;5094734;28;20041;-56
2023/10/18 05:43:59;;;;;;;15.30;6.60;;;4.20;99.90;;;;;;5102370;28;20032;-60
2023/10/18 05:46:27;;;;;;;12.18;6.60;;;4.10;99.90;;;;;;5099041;28;20036;-60
2023/10/18 05:48:55;;;;;;;12.73;7.03;;;4.10;99.90;;;;;;5100814;28;20058;-59
2023/10/18 05:51:26;;;;;;;11.57;7.07;;;4.20;99.90;;;;;;5112475;28;20399;-60
2023/10/18 05:54:04;;;;;;;11.07;6.38;;;4.20;99.90;;;;;;5105011;28;20035;-60
2023/10/18 05:56:32;;;;;;;;;;;4.20;99.90;;;;;;5113720;28;20067;-60
2023/10/18 06:01:54;;;;;;;11.95;6.72;;;4.30;99.90;;;;;;5109396;27;20040;-57
2023/10/18 06:04:24;;;;;;;12.68;6.72;;;4.30;99.90;;;;;;5109408;28;20039;-60
2023/10/18 06:06:59;;;;;;;13.48;6.68;;;4.30;99.90;;;;;;5114028;28;20066;-61
2023/10/18 06:09:46;;;;;;;14.05;6.90;;;4.30;99.90;;;;;;5114376;28;20126;-60
2023/10/18 06:12:14;;;;;;;12.63;7.28;;;4.30;99.90;;;;;;5104013;28;20071;-60
2023/10/18 06:14:44;;;;;;;12.82;6.43;;;4.30;99.90;;;;;;5114134;28;20035;-59
2023/10/18 06:17:26;;;;;;;8.75;5.22;;;4.40;99.90;;;;;;5113552;28;20040;-60
2023/10/18 06:19:56;;;;;;;11.50;5.60;;;4.40;99.90;;;;;;5110616;28;20157;-59
2023/10/18 06:22:39;;;;;;;15.55;6.45;;;4.40;99.90;;;;;;5110460;28;20032;-60
2023/10/18 06:25:09;;;;;;;11.43;5.75;;;4.50;99.90;;;;;;5111767;28;20396;-59
2023/10/18 06:27:40;;;;;;;11.02;6.15;;;4.50;99.90;;;;;;5111964;28;20476;-60
2023/10/18 06:30:17;;;;;;;11.63;5.90;;;4.60;99.90;;;;;;5094892;28;20442;-60
2023/10/18 06:32:45;;;;;;;9.75;5.63;;;4.60;99.90;;;;;;5111693;28;20155;-60
2023/10/18 06:35:25;;;;;;;;;;;4.60;99.90;;;;;;5111149;28;20043;-60
2023/10/18 06:37:52;;;;;;;11.48;5.32;;;4.70;99.90;;;;;;5113334;28;19923;-60
2023/10/18 06:40:24;;;;;;;11.95;6.15;;;4.70;99.90;;;;;;5113264;28;20035;-60
2023/10/18 06:42:51;;;;;;;13.93;6.43;;;4.80;99.90;;;;;;5112475;28;20073;-59
2023/10/18 06:45:25;;;;;;;11.60;6.15;;;4.90;99.90;;;;;;5103624;28;20039;-60
2023/10/18 06:47:55;;;;;;;7.95;5.80;;;4.90;99.90;;;;;;5113536;28;20108;-59
2023/10/18 06:50:28;;;;;;;13.70;5.70;;;5.00;99.90;;;;;;5113223;28;20491;-59
2023/10/18 06:52:55;;;;;;;11.00;6.22;;;5.10;99.90;;;;;;5104940;28;20527;-58
2023/10/18 07:00:53;;;;;;;10.32;5.95;;;5.50;99.90;;;;;;5113029;28;20059;-60
2023/10/18 07:06:18;;;;;;;10.85;5.55;;;5.70;99.90;;;;;;5100113;28;20088;-59
2023/10/18 07:08:49;;;;;;;12.57;6.68;;;5.80;99.90;;;;;;5112818;28;20054;-59
2023/10/18 07:11:18;;;;;;;10.95;6.15;;;5.80;99.90;;;;;;5110335;28;20542;-59
2023/10/18 07:13:55;;;;;;;11.55;6.00;;;5.90;99.90;;;;;;5111265;28;20126;-59
2023/10/18 07:19:21;;;;;;;10.82;5.40;;;6.10;99.90;;;;;;5112899;28;20048;-59
2023/10/18 07:21:48;;;;;;;10.77;5.40;;;6.20;99.90;;;;;;5112069;28;20047;-59
2023/10/18 07:24:17;;;;;;;7.05;4.68;;;6.20;99.90;;;;;;5112828;28;20549;-60
2023/10/18 07:26:47;;;;;;;9.90;5.15;;;6.30;99.90;;;;;;5112666;28;20039;-60
2023/10/18 07:29:14;;;;;;;8.90;5.10;;;6.40;99.90;;;;;;5109812;28;20540;-59
2023/10/18 07:31:45;;;;;;;;;;;6.40;99.90;;;;;;5113190;28;20452;-58
2023/10/18 07:34:19;;;;;;;9.02;5.50;;;6.40;99.90;;;;;;5104263;28;19927;-59
2023/10/18 07:36:46;;;;;;;9.45;5.63;;;6.40;99.90;;;;;;5107428;28;20051;-59
2023/10/18 07:39:16;;;;;;;;;;;6.60;99.90;;;;;;5113121;28;20043;-61
2023/10/18 07:41:43;;;;;;;17.92;6.00;;;6.60;99.90;;;;;;5108308;28;20017;-60
2023/10/18 07:44:10;;;;;;;9.70;5.65;;;6.60;99.90;;;;;;5112495;28;20047;-59
2023/10/18 07:46:40;;;;;;;8.25;4.97;;;6.80;99.90;;;;;;5097433;28;20044;-60
2023/10/18 07:49:15;;;;;;;12.63;4.95;;;7.00;99.90;;;;;;5110097;28;20032;-60
2023/10/18 07:51:48;;;;;;;10.38;5.10;;;7.10;99.90;;;;;;5108499;28;20044;-60
2023/10/18 07:54:16;;;;;;;14.25;4.90;;;7.10;99.90;;;;;;5108303;28;20507;-60
2023/10/18 07:56:50;;;;;;;9.30;4.70;;;7.30;99.90;;;;;;5103920;28;20047;-60
2023/10/18 07:59:30;;;;;;;7.18;4.50;;;7.30;99.90;;;;;;5096208;28;20123;-60
2023/10/18 08:02:12;;;;;;;7.95;5.00;;;7.50;99.90;;;;;;5106627;28;20048;-60
2023/10/18 08:04:43;;;;;;;8.32;5.28;;;7.50;99.90;;;;;;5112234;28;20052;-60
2023/10/18 08:07:15;;;;;;;8.00;5.00;;;7.60;99.90;;;;;;5111373;28;20042;-58
2023/10/18 08:09:43;;;;;;;8.70;4.95;;;7.60;99.90;;;;;;5106208;28;20093;-59
2023/10/18 08:12:30;;;;;;;9.95;5.32;;;7.70;99.90;;;;;;5102101;28;20424;-59
2023/10/18 08:14:57;;;;;;;7.45;5.20;;;7.80;99.90;;;;;;5110789;28;20071;-61
2023/10/18 08:17:44;;;;;;;7.18;4.75;;;8.00;99.90;;;;;;5111251;28;20122;-61
2023/10/18 08:22:51;;;;;;;8.30;4.53;;;8.30;99.90;;;;;;5111463;28;20524;-60
2023/10/18 08:25:29;;;;;;;8.80;4.57;;;8.40;99.90;;;;;;5111624;28;20484;-60
2023/10/18 08:27:56;;;;;;;9.32;4.63;;;8.30;99.90;;;;;;5102303;28;20041;-60
2023/10/18 08:31:03;;;;;;;7.40;4.93;;;8.20;99.90;;;;;;5111637;28;20081;-60
2023/10/18 08:33:26;;;;;;;8.40;4.45;;;8.30;99.90;;;;;;5111191;28;20075;-59
2023/10/18 08:35:58;;;;;;;8.43;4.93;;;8.40;99.90;;;;;;5109054;28;20476;-59
2023/10/18 08:38:26;;;;;;;8.60;4.55;;;8.40;99.90;;;;;;5109770;28;20123;-60
2023/10/18 08:41:11;;;;;;;9.07;4.80;;;8.50;99.90;;;;;;5111295;28;20559;-61
2023/10/18 08:43:48;;;;;;;6.47;4.13;;;8.60;99.90;;;;;;5105719;28;20039;-60
2023/10/18 08:46:15;;;;;;;7.93;3.93;;;8.80;99.90;;;;;;5111210;28;20119;-60
2023/10/18 08:48:43;;;;;;;;;;;8.90;99.90;;;;;;5111868;28;20293;-59
2023/10/18 08:51:10;;;;;;;8.40;4.15;;;8.90;99.90;;;;;;5100598;28;19923;-60
2023/10/18 08:53:41;;;;;;;9.90;3.83;;;8.90;99.90;;;;;;5111300;28;20043;-60
2023/10/18 08:56:08;;;;;;;5.05;3.53;;;9.00;99.90;;;;;;5111089;28;20073;-60
2023/10/18 08:58:37;;;;;;;10.65;4.57;;;9.10;99.90;;;;;;5111288;28;20039;-59
2023/10/18 09:01:05;;;;;;;6.50;3.70;;;9.20;99.90;;;;;;5104910;28;20054;-59
2023/10/18 09:03:35;;;;;;;9.82;3.83;;;9.40;99.90;;;;;;5111125;28;20051;-61
2023/10/18 09:06:07;;;;;;;8.18;3.85;;;9.30;99.90;;;;;;5111138;28;20463;-60
2023/10/18 09:08:41;;;;;;;9.93;4.10;;;9.40;99.90;;;;;;5100098;28;20497;-60
2023/10/18 09:11:21;;;;;;;6.82;4.28;;;9.70;99.90;;;;;;5100561;28;20504;-60
2023/10/18 09:14:07;;;;;;;8.18;3.60;;;9.80;99.90;;;;;;5109843;28;20043;-59
2023/10/18 09:16:43;;;;;;;5.63;3.30;;;9.80;99.90;;;;;;5110835;28;20047;-60
2023/10/18 09:19:10;;;;;;;11.07;4.10;;;9.80;99.90;;;;;;5103191;28;20047;-59
2023/10/18 09:21:44;;;;;;;4.60;3.03;;;9.90;99.90;;;;;;5113411;28;20040;-60
2023/10/18 09:24:11;;;;;;;6.00;3.50;;;10.00;99.90;;;;;;5115107;28;20048;-60
2023/10/18 09:26:41;;;;;;;7.57;3.22;;;10.20;99.90;;;;;;5109934;28;20532;-59
2023/10/18 09:29:09;;;;;;;7.65;3.88;;;10.40;99.90;;;;;;5115056;28;20041;-61
2023/10/18 09:31:52;;;;;;;5.15;3.28;;;10.60;99.90;;;;;;5114787;28;20048;-61
2023/10/18 09:34:20;;;;;;;7.63;3.10;;;10.80;99.90;;;;;;5099289;28;20035;-61
2023/10/18 09:36:56;;;;;;;5.70;2.90;;;10.90;99.90;;;;;;5115031;28;20054;-59
2023/10/18 09:39:37;;;;;;;4.63;2.72;;;11.20;99.90;;;;;;5115241;28;20114;-59
2023/10/18 09:42:06;;;;;;;5.78;2.85;;;11.40;99.90;;;;;;5107544;28;20050;-60
2023/10/18 09:44:33;;;;;;;9.07;3.15;;;11.60;99.90;;;;;;5114875;28;20050;-60
2023/10/18 09:47:01;;;;;;;5.97;3.13;;;11.70;99.90;;;;;;5113817;28;20063;-61
2023/10/18 09:49:29;;;;;;;8.73;3.08;;;11.70;99.90;;;;;;5114812;28;20031;-60
2023/10/18 09:52:00;;;;;;;4.55;2.90;;;11.60;99.90;;;;;;5100808;28;20043;-61
2023/10/18 09:54:27;;;;;;;6.63;3.17;;;11.40;99.90;;;;;;5106146;28;20387;-59
2023/10/18 09:56:57;;;;;;;5.85;3.00;;;11.40;99.90;;;;;;5112832;28;20492;-60
2023/10/18 09:59:30;;;;;;;4.70;3.35;;;11.30;99.90;;;;;;5110625;28;20429;-61
2023/10/18 10:02:07;;;;;;;8.43;3.70;;;11.40;99.90;;;;;;5114428;28;20511;-60
2023/10/18 10:04:35;;;;;;;9.68;2.70;;;11.50;99.90;;;;;;5114383;28;20036;-61
2023/10/18 10:09:49;;;;;;;5.18;2.95;;;11.80;99.90;;;;;;5106690;28;20043;-59
2023/10/18 10:12:17;;;;;;;5.43;3.03;;;12.00;99.90;;;;;;5114063;28;20040;-60
2023/10/18 10:14:45;;;;;;;5.75;3.25;;;12.10;99.90;;;;;;5114072;28;20040;-60
2023/10/18 10:17:15;;;;;;;9.18;3.28;;;12.30;99.90;;;;;;5112428;28;20524;-59
2023/10/18 10:19:47;;;;;;;7.78;3.83;;;12.60;99.90;;;;;;5108945;28;20094;-59
2023/10/18 10:22:17;;;;;;;6.97;3.90;;;12.80;99.90;;;;;;5112300;28;20036;-60
2023/10/18 10:24:50;;;;;;;8.35;3.55;;;13.00;99.90;;;;;;5114160;28;20048;-60
2023/10/18 10:30:25;;;;;;;6.28;3.70;;;13.00;99.90;;;;;;5114069;28;20036;-61
2023/10/18 10:32:58;;;;;;;5.55;3.70;;;12.90;99.90;;;;;;5112189;28;20044;-61
2023/10/18 10:35:29;;;;;;;5.82;3.58;;;13.10;99.90;;;;;;5103076;28;20036;-60
2023/10/18 10:38:09;;;;;;;7.60;3.60;;;12.90;99.90;;;;;;5109812;28;20057;-61
2023/10/18 10:40:44;;;;;;;8.10;3.80;;;13.00;99.90;;;;;;5113371;28;20507;-60
2023/10/18 10:43:13;;;;;;;4.20;3.03;;;13.20;99.90;;;;;;5108758;28;20054;-60
2023/10/18 10:48:18;;;;;;;8.20;3.40;;;13.30;99.90;;;;;;5112668;28;20126;-61
2023/10/18 10:50:52;;;;;;;6.50;3.47;;;13.50;99.90;;;;;;5110513;28;20496;-60
2023/10/18 10:53:45;;;;;;;7.43;3.38;;;13.60;99.90;;;;;;5112291;28;20122;-61
2023/10/18 10:56:20;;;;;;;5.72;3.45;;;13.70;99.90;;;;;;5113473;28;20086;-60
2023/10/18 10:58:54;;;;;;;7.30;3.40;;;14.00;99.90;;;;;;5113511;28;20039;-61
2023/10/18 11:01:39;;;;;;;5.47;2.53;;;14.10;99.90;;;;;;5106545;28;20044;-60
2023/10/18 11:07:13;;;;;;;3.95;2.33;;;14.20;99.90;;;;;;5085681;28;20150;-60
2023/10/18 11:09:42;;;;;;;5.78;2.70;;;14.20;99.90;;;;;;5107886;27;20039;-61
2023/10/18 11:12:12;;;;;;;7.43;2.90;;;14.50;99.90;;;;;;5112715;28;20382;-61
2023/10/18 11:14:42;;;;;;;4.75;2.65;;;14.70;99.90;;;;;;5106169;28;20044;-61
2023/10/18 11:19:45;;;;;;;5.53;2.78;;;14.70;99.90;;;;;;5111607;28;20054;-61
2023/10/18 11:22:19;;;;;;;8.27;2.63;;;14.80;99.90;;;;;;5110963;28;20039;-61
2023/10/18 11:24:50;;;;;;;7.57;3.05;;;14.80;99.90;;;;;;5102750;28;20609;-61
2023/10/18 11:27:21;;;;;;;4.57;2.65;;;15.00;99.90;;;;;;5112532;28;20480;-60
2023/10/18 11:29:55;;;;;;;6.20;2.85;;;15.10;99.90;;;;;;5112627;28;20109;-61
2023/10/18 11:32:28;;;;;;;8.32;2.65;;;15.10;99.90;;;;;;5110571;28;20126;-60
2023/10/18 11:35:09;;;;;;;5.47;2.65;;;15.30;99.90;;;;;;5112874;28;20053;-60
2023/10/18 11:37:37;;;;;;;8.40;2.50;;;15.40;99.90;;;;;;5112523;28;20479;-60
2023/10/18 11:40:43;;;;;;;3.83;2.28;;;15.40;99.90;;;;;;5105880;28;20149;-61
2023/10/18 11:43:07;;;;;;;4.90;2.30;;;15.50;99.90;;;;;;5106434;28;20090;-61
2023/10/18 11:45:39;;;;;;;3.97;1.90;;;15.60;99.90;;;;;;5110150;28;20388;-61
2023/10/18 11:48:09;;;;;;;6.10;2.22;;;15.50;99.90;;;;;;5108678;28;20134;-61
2023/10/18 11:50:47;;;;;;;4.40;2.30;;;15.60;99.90;;;;;;5111653;28;20484;-61
2023/10/18 11:53:17;;;;;;;5.20;2.20;;;15.60;99.90;;;;;;5111900;28;20035;-61
2023/10/18 11:56:01;;;;;;;2.42;1.83;;;15.80;99.90;;;;;;5106079;28;20044;-61
2023/10/18 11:58:34;;;;;;;4.53;2.05;;;15.90;99.90;;;;;;5111643;28;20043;-60
2023/10/18 12:01:16;;;;;;;6.43;2.38;;;16.10;99.90;;;;;;5112217;28;20062;-61
2023/10/18 12:03:43;;;;;;;4.47;1.85;;;16.20;99.90;;;;;;5105662;28;20438;-60
2023/10/18 12:06:11;;;;;;;11.18;2.75;;;16.30;99.90;;;;;;5111988;28;20051;-61
2023/10/18 12:09:07;;;;;;;4.07;1.98;;;16.20;99.90;;;;;;5111706;28;20458;-61
2023/10/18 12:11:34;;;;;;;3.53;2.28;;;16.20;99.90;;;;;;5110279;28;20070;-60
2023/10/18 12:14:01;;;;;;;5.70;2.10;;;16.20;99.90;;;;;;5111816;28;20497;-60
2023/10/18 12:16:28;;;;;;;2.67;2.22;;;16.10;99.90;;;;;;5111449;28;20039;-61
2023/10/18 12:18:55;;;;;;;6.15;3.28;;;16.10;99.90;;;;;;5111926;28;20130;-60
2023/10/18 12:21:26;;;;;;;4.88;3.03;;;16.00;99.90;;;;;;5104298;28;20507;-61
2023/10/18 12:23:55;;;;;;;9.15;4.25;;;15.90;99.90;;;;;;5111940;27;20535;-61
2023/10/18 12:26:24;;;;;;;5.97;3.55;;;16.00;99.90;;;;;;5111275;28;20051;-61
2023/10/18 12:28:52;;;;;;;6.43;3.08;;;16.00;99.90;;;;;;5111541;28;20032;-61
2023/10/18 12:31:26;;;;;;;5.88;3.17;;;16.10;99.90;;;;;;5104089;28;20062;-61
2023/10/18 12:34:00;;;;;;;4.82;2.63;;;16.10;99.90;;;;;;5111373;28;20112;-61
2023/10/18 12:36:33;;;;;;;7.10;2.78;;;16.00;99.90;;;;;;5111302;28;20109;-61
2023/10/18 12:39:00;;;;;;;4.03;3.15;;;16.00;99.90;;;;;;5099296;28;20051;-61
2023/10/18 12:41:33;;;;;;;8.02;3.80;;;16.00;99.90;;;;;;5110167;28;20052;-61
2023/10/18 12:44:00;;;;;;;6.25;3.55;;;16.00;99.90;;;;;;5111203;28;20142;-61
2023/10/18 12:46:27;;;;;;;7.97;3.45;;;15.90;99.90;;;;;;5111157;28;20048;-60
2023/10/18 12:48:56;;;;;;;3.95;2.83;;;15.80;99.90;;;;;;5103113;28;20035;-60
2023/10/18 12:51:41;;;;;;;6.05;3.10;;;15.90;99.90;;;;;;5111490;28;20082;-59
2023/10/18 12:54:10;;;;;;;7.80;3.35;;;15.90;99.90;;;;;;5110874;28;20123;-60
2023/10/18 12:56:44;;;;;;;8.18;3.40;;;16.00;99.90;;;;;;5106412;28;20104;-62
2023/10/18 13:04:08;;;;;;;6.13;2.83;;;16.20;99.90;;;;;;5111293;28;20381;-61
2023/10/18 13:06:41;;;;;;;7.10;2.60;;;16.20;99.90;;;;;;5102760;28;20054;-60
2023/10/18 13:14:32;;;;;;;13.20;6.78;;;16.20;99.90;;;;;;5108023;28;20396;-61
2023/10/18 13:17:05;;;;;;;9.25;6.57;;;16.10;99.90;;;;;;5110125;28;20048;-62
2023/10/18 13:19:32;;;;;;;7.63;6.22;;;16.20;99.90;;;;;;5111087;28;20046;-61
2023/10/18 13:21:59;;;;;;;8.32;5.35;;;16.30;99.90;;;;;;5105221;28;20047;-61
2023/10/18 13:24:29;;;;;;;9.93;6.32;;;16.50;99.90;;;;;;5111081;28;20043;-60
2023/10/18 13:27:00;;;;;;;8.40;6.30;;;16.50;99.90;;;;;;5110775;28;20068;-61
2023/10/18 13:29:30;;;;;;;7.72;6.15;;;16.60;99.90;;;;;;5103391;28;20064;-62
2023/10/18 13:31:58;;;;;;;7.10;5.43;;;16.60;99.90;;;;;;5104904;28;20115;-60
2023/10/18 13:34:32;;;;;;;6.85;5.05;;;16.70;99.90;;;;;;5110773;28;20430;-61
2023/10/18 13:37:04;;;;;;;7.30;5.20;;;16.80;99.90;;;;;;5111071;28;20043;-61
2023/10/18 13:39:31;;;;;;;11.43;6.03;;;16.90;99.90;;;;;;5103539;28;20054;-61
2023/10/18 13:42:00;;;;;;;9.30;5.95;;;16.70;99.90;;;;;;5110762;28;20044;-61
2023/10/18 13:44:29;;;;;;;7.72;5.60;;;16.50;99.90;;;;;;5102902;28;20408;-61
2023/10/18 13:46:57;;;;;;;8.07;5.60;;;16.30;99.90;;;;;;5104575;28;20164;-60
2023/10/18 13:49:39;;;;;;;9.18;6.55;;;16.30;99.90;;;;;;5109383;28;20122;-61
2023/10/18 13:52:06;;;;;;;8.73;6.05;;;16.20;99.90;;;;;;5110849;28;20050;-61
2023/10/18 13:54:34;;;;;;;7.75;5.32;;;16.20;99.90;;;;;;5103348;28;20032;-61
2023/10/18 13:57:01;;;;;;;8.43;5.00;;;16.10;99.90;;;;;;5110869;28;20480;-62
2023/10/18 13:59:28;;;;;;;;;;;15.90;99.90;;;;;;5110590;28;20097;-62
2023/10/18 14:01:56;;;;;;;8.05;5.05;;;15.80;99.90;;;;;;5107119;28;19980;-61
2023/10/18 14:04:28;;;;;;;10.40;5.63;;;15.80;99.90;;;;;;5108475;28;20123;-59
2023/10/18 14:06:57;;;;;;;9.43;4.82;;;15.90;99.90;;;;;;5110932;28;20050;-61
2023/10/18 14:09:25;;;;;;;7.78;5.85;;;15.80;99.90;;;;;;5113786;28;20092;-60
2023/10/18 14:11:53;;;;;;;10.77;5.93;;;15.70;99.90;;;;;;5108479;28;20034;-60
2023/10/18 14:14:20;;;;;;;;;;;15.50;99.90;;;;;;5114713;28;20539;-60
2023/10/18 14:16:48;;;;;;;9.15;5.43;;;15.50;99.90;;;;;;5105798;28;19919;-60
2023/10/18 14:19:19;;;;;;;7.90;4.88;;;15.60;99.90;;;;;;5112123;28;20036;-60
2023/10/18 14:21:48;;;;;;;5.40;4.20;;;15.70;99.90;;;;;;5106234;28;20480;-61
2023/10/18 14:24:17;;;;;;;8.50;4.80;;;15.70;99.90;;;;;;5113987;28;20159;-61
2023/10/18 14:26:44;;;;;;;6.78;4.82;;;15.70;99.90;;;;;;5113928;28;20036;-61
2023/10/18 14:29:11;;;;;;;;;;;15.70;99.90;;;;;;5109828;28;20084;-61
2023/10/18 14:31:39;;;;;;;8.27;4.97;;;15.90;99.90;;;;;;5113735;28;19924;-61